AirNav   Bose Proflight Series 2 Wireless Aviation Headset
 
 961 users online  

II13 Sugar Creek Air Park
Markleville, Indiana, USA

GOING TO MARKLEVILLE?


FAA INFORMATION EFFECTIVE 07 NOVEMBER 2019

Location

FAA Identifier: II13
Lat/Long: 39-55-13.0000N 085-35-55.0000W
39-55.216667N 085-35.916667W
39.9202778,-85.5986111
(estimated)
Elevation: 1000 ft. / 305 m (estimated)
From city: 4 miles S of MARKLEVILLE, IN
Time zone: UTC -5 (UTC -4 during Daylight Saving Time)
Zip code: 47384

Airport Operations

Airport use: Private use. Permission required prior to landing
Activation date: 02/2008
Control tower: no
ARTCC: INDIANAPOLIS CENTER
FSS: TERRE HAUTE FLIGHT SERVICE STATION
Attendance: UNATNDD
Wind indicator: yes
Segmented circle: no

Airport Communications

WX AWOS-3 at AID (11 nm N): 128.55 (765-442-1245)
WX AWOS-3 at MQJ (15 nm W): 124.175 (317-335-3037)

Nearby radio navigation aids

VOR radial/distance  VOR name  Freq  Var
SHBr030/20.2SHELBYVILLE VOR/DME112.0001E
MIEr209/21.2MUNCIE VOR/DME114.4003W
MZZr177/34.6MARION VOR/DME108.6003W
VHPr079/36.0BRICKYARD VORTAC116.3001E

 
NDB name  Hdg/Dist  Freq  Var  ID
VIDEO207/9.839403WAI .- ..
NEW CASTLE287/13.138506WUWL ..- .-- .-..
METROPOLITAN096/20.833803WUMP ..- -- .--.
BATESVILLE340/37.825405WHLB .... .-.. -...

Airport Services

Runway Information

Runway 18/36

Dimensions: 1870 x 150 ft. / 570 x 46 m
Surface: turf
RUNWAY 18  RUNWAY 36
Traffic pattern: leftleft

Airport Ownership and Management from official FAA records

Ownership: Privately-owned
Owner: JEFF ROBERT & PHILLIP JONES
5968 CARROLL RD
INDIANAPOLIS, IN 46235
Phone 317-979-0707
Manager: JEFF ROBERTS
5968 CARROL RD
INDIANAPOLIS, IN 46235
Phone 317-326-3890

Airport Operational Statistics

Aircraft based on the field: 1
Single engine airplanes: 1
    

Additional Remarks

FOR CD CTC INDIANAPOLIS APCH AT 317-227-5743.

Instrument Procedures

There are no published instrument procedures at II13.

Some nearby airports with instrument procedures:

KAID - Anderson Municipal Airport-Darlington Field (11 nm N)
KUWL - New Castle Henry County Airport / Marlatt Field (13 nm E)
KMQJ - Indianapolis Regional Airport (15 nm W)
KUMP - Indianapolis Metropolitan Airport (21 nm W)
KMIE - Delaware County Regional Airport (21 nm NE)
 
Loc | Ops | Rwys | IFR | FBO | Links
Com | Nav | Svcs | Stats | Notes
Aerial photo
No photo
 
Sectional chart

 
Airport distance calculator
Flying to Sugar Creek Air Park? Find the distance to fly.

From to II13

Sunrise and sunset
Times for 21-Nov-2019
 Local
(UTC-5)
 Zulu
(UTC)
Morning civil twilight07:0612:06
Sunrise07:3512:35
Sunset17:2122:21
Evening civil twilight17:5122:51

Current date and time
Zulu (UTC)  22-Nov-2019 02:51:20
Local (UTC-5)  21-Nov-2019 21:51:20
 
METAR
KAID 
12nm N 
220235Z AUTO 29011G17KT 5SM BR OVC008 09/08 A2994 RMK AO2 T00920081
KMQJ 
14nm W 
220235Z AUTO 27011KT 2 1/2SM BKN007 OVC015 10/10 A2995 RMK AO1
KMIE 
21nm NE 
220206Z 27015G23KT 8SM SCT007 OVC012 12/09 A2992 RMK AO2 RAE00 P0000 T01170089
KGEZ 
22nm SW 
220237Z AUTO 21009KT 3SM BR OVC003 12/11 A2994 RMK AO2 RAE07B23E34 P0001 T01170106
TAF
KIND 
34nm W 
212020Z 2120/2224 21017G33KT P6SM VCSH OVC011 FM212300 23015G24KT P6SM OVC007 FM220200 27011G20KT P6SM VCSH OVC013 FM220500 30007KT P6SM BKN013 FM221700 01006KT P6SM BKN035 FM222200 04005KT P6SM SCT250
NOTAMs
Click for the latest NOTAMs
NOTAMs are issued by the DoD/FAA and will open in a separate window not controlled by AirNav.

 

 
 

Would you like to see your business listed on this page?

 If your business provides an interesting product or service to pilots, flight crews, aircraft, or users of the Sugar Creek Air Park, you should consider listing it here.  To start the listing process, click on the button below
 
Add a business
 

Other Pages about Sugar Creek Air Park

Update a link
 
Copyright © AirNav, LLC. All rights reserved. Privacy Policy  Contact